createdAt,value
2019-06-01T00:00:44.494Z,48.13
2019-06-01T00:03:13.423Z,47.07
2019-06-01T00:05:42.595Z,49.97
2019-06-01T00:08:11.553Z,47.00
2019-06-01T00:10:41.053Z,50.37
2019-06-01T00:13:11.135Z,48.63
2019-06-01T00:15:41.901Z,48.77
2019-06-01T00:18:11.490Z,46.50
2019-06-01T00:20:42.197Z,49.13
2019-06-01T00:23:11.564Z,50.27
2019-06-01T00:25:42.274Z,48.47
2019-06-01T00:28:12.093Z,48.03
2019-06-01T00:30:41.631Z,48.00
2019-06-01T00:33:10.577Z,47.50
2019-06-01T00:35:39.781Z,47.20
2019-06-01T00:38:08.736Z,48.43
2019-06-01T00:40:38.092Z,47.00
2019-06-01T00:43:07.024Z,47.00
2019-06-01T00:45:35.959Z,48.77
2019-06-01T00:48:04.950Z,48.17
2019-06-01T00:50:34.021Z,47.20
2019-06-01T00:53:03.071Z,47.83
2019-06-01T00:55:32.172Z,46.93
2019-06-01T00:58:01.404Z,47.00
2019-06-01T01:00:43.125Z,47.97
2019-06-01T01:03:01.110Z,46.40
2019-06-01T01:05:30.133Z,55.07
2019-06-01T01:07:59.289Z,47.57
2019-06-01T01:10:28.194Z,48.67
2019-06-01T01:13:06.584Z,47.27
2019-06-01T01:15:36.258Z,47.60
2019-06-01T01:18:06.702Z,49.50
2019-06-01T01:20:36.561Z,49.70
2019-06-01T01:23:06.045Z,47.70
2019-06-01T01:25:35.234Z,47.50
2019-06-01T01:28:04.251Z,47.40
2019-06-01T01:30:33.531Z,47.20
2019-06-01T01:33:02.609Z,47.90
2019-06-01T01:35:31.760Z,47.50
2019-06-01T01:38:00.998Z,47.70
2019-06-01T01:40:29.899Z,47.57
2019-06-01T01:42:59.213Z,46.33
2019-06-01T01:45:28.221Z,47.17
2019-06-01T01:47:57.273Z,47.00
2019-06-01T01:50:27.433Z,47.70
2019-06-01T01:52:57.089Z,46.37
2019-06-01T01:55:26.216Z,47.27
2019-06-01T01:57:55.368Z,48.50
2019-06-01T02:00:44.675Z,47.23
2019-06-01T02:03:13.626Z,48.27
2019-06-01T02:05:42.612Z,47.77
2019-06-01T02:08:11.540Z,48.27
2019-06-01T02:10:40.797Z,47.30
2019-06-01T02:13:09.948Z,46.77
2019-06-01T02:15:40.420Z,47.03
2019-06-01T02:18:09.424Z,47.60
2019-06-01T02:20:38.299Z,49.93
2019-06-01T02:23:07.284Z,47.57
2019-06-01T02:25:36.359Z,49.93
2019-06-01T02:28:05.558Z,47.73
2019-06-01T02:30:34.491Z,47.20
2019-06-01T02:33:04.636Z,47.90
2019-06-01T02:35:33.757Z,49.63
2019-06-01T02:38:03.651Z,47.43
2019-06-01T02:40:33.387Z,47.40
2019-06-01T02:43:04.219Z,47.30
2019-06-01T02:45:33.214Z,48.13
2019-06-01T02:48:03.741Z,47.03
2019-06-01T02:50:32.857Z,49.30
2019-06-01T02:53:01.847Z,47.40
2019-06-01T02:55:30.810Z,46.60
2019-06-01T02:58:00.227Z,48.67
2019-06-01T03:01:22.295Z,46.87
2019-06-01T03:03:53.695Z,47.50
2019-06-01T03:06:22.656Z,46.83
2019-06-01T03:08:54.259Z,47.00
2019-06-01T03:11:26.549Z,47.47
2019-06-01T03:13:58.251Z,46.67
2019-06-01T03:16:29.871Z,47.30
2019-06-01T03:19:01.855Z,46.47
2019-06-01T03:21:33.949Z,48.13
2019-06-01T03:24:09.419Z,47.30
2019-06-01T03:26:43.622Z,48.00
2019-06-01T03:29:17.693Z,49.40
2019-06-01T03:31:48.023Z,48.20
2019-06-01T03:34:17.009Z,48.10
2019-06-01T03:36:46.044Z,46.83
2019-06-01T03:39:14.928Z,48.17
2019-06-01T03:41:43.752Z,47.37
2019-06-01T03:44:13.067Z,46.27
2019-06-01T03:46:41.998Z,47.03
2019-06-01T03:49:11.993Z,49.63
2019-06-01T03:51:40.892Z,48.37
2019-06-01T03:54:10.146Z,48.60
2019-06-01T03:56:39.173Z,47.20
2019-06-01T03:59:09.213Z,47.07
2019-06-01T04:01:38.355Z,46.87
2019-06-01T04:04:09.338Z,47.77
2019-06-01T04:06:38.323Z,48.13
2019-06-01T04:09:08.236Z,47.77
2019-06-01T04:11:37.165Z,48.57
2019-06-01T04:14:07.734Z,46.97
2019-06-01T04:16:36.735Z,48.33
2019-06-01T04:19:06.010Z,49.00
2019-06-01T04:21:35.026Z,47.90
2019-06-01T04:24:04.199Z,47.60
2019-06-01T04:26:33.024Z,50.30
2019-06-01T04:29:02.287Z,46.97
2019-06-01T04:31:31.353Z,49.57
2019-06-01T04:34:00.245Z,47.37
2019-06-01T04:36:29.431Z,47.90
2019-06-01T04:38:58.399Z,48.03
2019-06-01T04:41:27.418Z,48.30
2019-06-01T04:43:56.393Z,47.57
2019-06-01T04:46:25.656Z,47.27
2019-06-01T04:48:54.582Z,48.47
2019-06-01T04:51:23.476Z,47.37
2019-06-01T04:53:52.603Z,46.70
2019-06-01T04:56:21.415Z,47.50
2019-06-01T04:58:50.243Z,47.40
2019-06-01T05:01:19.268Z,47.70
2019-06-01T05:03:48.156Z,48.10
2019-06-01T05:06:17.089Z,49.20
2019-06-01T05:08:46.323Z,48.37
2019-06-01T05:11:15.744Z,47.50
2019-06-01T05:13:44.794Z,48.90
2019-06-01T05:16:14.881Z,48.57
2019-06-01T05:18:44.162Z,47.17
2019-06-01T05:21:13.092Z,46.80
2019-06-01T05:23:42.053Z,47.50
2019-06-01T05:26:11.025Z,49.70
2019-06-01T05:28:39.912Z,48.77
2019-06-01T05:31:13.447Z,48.97
2019-06-01T05:33:39.765Z,49.27
2019-06-01T05:36:10.020Z,49.90
2019-06-01T05:38:38.890Z,48.20
2019-06-01T05:41:09.966Z,48.87
2019-06-01T05:43:38.305Z,48.00
2019-06-01T05:46:07.450Z,50.37
2019-06-01T05:48:36.421Z,47.77
2019-06-01T05:51:05.437Z,49.00
2019-06-01T05:53:34.275Z,47.87
2019-06-01T05:56:03.345Z,47.60
2019-06-01T05:58:32.160Z,47.70
2019-06-01T06:01:01.100Z,48.40
2019-06-01T06:03:39.946Z,48.73
2019-06-01T06:06:00.872Z,47.43
2019-06-01T06:08:29.736Z,48.70
2019-06-01T06:10:58.835Z,48.77
2019-06-01T06:13:27.684Z,50.60
2019-06-01T06:15:56.473Z,49.70
2019-06-01T06:18:25.280Z,47.53
2019-06-01T06:20:54.166Z,47.53
2019-06-01T06:23:23.265Z,47.63
2019-06-01T06:25:52.079Z,48.60
2019-06-01T06:28:20.883Z,48.20
2019-06-01T06:30:49.667Z,51.40
2019-06-01T06:33:19.358Z,47.40
2019-06-01T06:35:48.269Z,49.10
2019-06-01T06:38:17.806Z,49.67
2019-06-01T06:40:46.745Z,48.73
2019-06-01T06:43:20.106Z,47.80
2019-06-01T06:45:46.068Z,48.90
2019-06-01T06:48:14.987Z,47.50
2019-06-01T06:50:43.920Z,48.97
2019-06-01T06:53:24.358Z,49.90
2019-06-01T06:55:43.493Z,47.90
2019-06-01T06:58:12.304Z,48.17
2019-06-01T07:00:41.355Z,47.80
2019-06-01T07:03:10.244Z,48.73
2019-06-01T07:05:39.428Z,48.17
2019-06-01T07:08:08.210Z,48.17
2019-06-01T07:10:37.186Z,47.97
2019-06-01T07:13:06.112Z,47.90
2019-06-01T07:15:35.065Z,48.30
2019-06-01T07:18:04.060Z,47.57
2019-06-01T07:20:32.919Z,48.47
2019-06-01T07:23:01.945Z,48.07
2019-06-01T07:25:30.736Z,47.17
2019-06-01T07:27:59.736Z,49.30
2019-06-01T07:30:28.664Z,48.00
2019-06-01T07:32:57.590Z,48.70
2019-06-01T07:35:26.514Z,47.90
2019-06-01T07:37:55.406Z,48.40
2019-06-01T07:40:24.773Z,47.67
2019-06-01T07:42:53.996Z,47.90
2019-06-01T07:45:22.919Z,48.07
2019-06-01T07:47:51.951Z,46.47
2019-06-01T07:50:21.887Z,47.70
2019-06-01T07:52:50.785Z,48.10
2019-06-01T07:55:19.644Z,47.40
2019-06-01T07:57:48.439Z,47.57
2019-06-01T08:00:18.064Z,47.13
2019-06-01T08:02:46.941Z,46.77
2019-06-01T08:05:15.942Z,46.87
2019-06-01T08:07:44.902Z,47.20
2019-06-01T08:10:13.842Z,46.80
2019-06-01T08:12:42.720Z,46.73
2019-06-01T08:15:12.163Z,47.17
2019-06-01T08:17:40.970Z,46.53
2019-06-01T08:20:09.902Z,47.10
2019-06-01T08:22:38.896Z,47.77
2019-06-01T08:25:07.876Z,47.20
2019-06-01T08:27:37.001Z,47.00
2019-06-01T08:30:06.457Z,47.47
2019-06-01T08:32:35.266Z,49.90
2019-06-01T08:35:09.055Z,47.03
2019-06-01T08:37:34.829Z,47.13
2019-06-01T08:40:03.877Z,46.37
2019-06-01T08:42:33.726Z,47.27
2019-06-01T08:45:02.719Z,47.37
2019-06-01T08:47:31.998Z,46.70
2019-06-01T08:50:00.886Z,46.40
2019-06-01T08:52:30.383Z,47.97
2019-06-01T08:54:59.366Z,46.30
2019-06-01T08:57:28.303Z,46.77
2019-06-01T08:59:57.206Z,46.37
2019-06-01T09:02:26.625Z,46.77
2019-06-01T09:04:55.673Z,46.60
2019-06-01T09:07:24.854Z,46.70
2019-06-01T09:09:53.720Z,46.47
2019-06-01T09:12:22.521Z,47.30
2019-06-01T09:14:51.428Z,46.67
2019-06-01T09:17:20.236Z,46.27
2019-06-01T09:19:49.079Z,46.63
2019-06-01T09:22:17.940Z,46.20
2019-06-01T09:24:46.762Z,46.27
2019-06-01T09:27:15.827Z,46.27
2019-06-01T09:29:44.919Z,46.00
2019-06-01T09:32:13.948Z,46.50
2019-06-01T09:34:42.780Z,46.17
2019-06-01T09:37:11.886Z,46.20
2019-06-01T09:39:40.729Z,45.80
2019-06-01T09:42:09.813Z,45.70
2019-06-01T09:44:38.716Z,46.20
2019-06-01T09:47:07.509Z,45.97
2019-06-01T09:49:36.345Z,45.83
2019-06-01T09:52:05.696Z,46.70
2019-06-01T09:54:35.227Z,46.80
2019-06-01T09:57:05.528Z,46.90
2019-06-01T09:59:34.530Z,46.07
2019-06-01T10:02:03.518Z,46.87
2019-06-01T10:04:32.371Z,45.87
2019-06-01T10:07:01.181Z,46.97
2019-06-01T10:09:30.060Z,48.80
2019-06-01T10:11:58.948Z,47.57
2019-06-01T10:14:28.198Z,46.37
2019-06-01T10:16:56.985Z,45.87
2019-06-01T10:19:25.794Z,46.13
2019-06-01T10:21:54.599Z,46.33
2019-06-01T10:24:23.474Z,46.57
2019-06-01T10:26:52.348Z,46.60
2019-06-01T10:29:21.413Z,46.67
2019-06-01T10:31:50.278Z,47.63
2019-06-01T10:34:19.190Z,47.10
2019-06-01T10:36:48.097Z,46.43
2019-06-01T10:39:19.635Z,46.60
2019-06-01T10:41:47.662Z,49.70
2019-06-01T10:44:16.539Z,46.40
2019-06-01T10:46:45.425Z,46.47
2019-06-01T10:49:14.231Z,46.20
2019-06-01T10:51:43.015Z,46.57
2019-06-01T10:54:12.026Z,45.97
2019-06-01T10:56:40.892Z,46.57
2019-06-01T10:59:09.926Z,46.00
2019-06-01T11:01:38.949Z,47.43
2019-06-01T11:04:07.947Z,46.27
2019-06-01T11:06:43.398Z,46.27
2019-06-01T11:09:08.644Z,46.17
2019-06-01T11:11:37.522Z,45.97
2019-06-01T11:14:06.375Z,46.17
2019-06-01T11:16:35.384Z,45.80
2019-06-01T11:19:04.443Z,46.97
2019-06-01T11:21:33.505Z,47.03
2019-06-01T11:24:02.566Z,45.87
2019-06-01T11:26:31.596Z,46.00
2019-06-01T11:29:00.454Z,45.80
2019-06-01T11:31:29.323Z,46.37
2019-06-01T11:33:58.291Z,45.60
2019-06-01T11:36:27.196Z,46.37
2019-06-01T11:38:56.127Z,47.07
2019-06-01T11:41:24.950Z,46.37
2019-06-01T11:43:53.918Z,46.23
2019-06-01T11:46:23.262Z,46.27
2019-06-01T11:48:52.099Z,46.90
2019-06-01T11:51:20.935Z,46.97
2019-06-01T11:53:49.734Z,46.23
2019-06-01T11:56:18.648Z,46.60
2019-06-01T11:58:47.467Z,46.50
2019-06-01T12:01:16.527Z,45.63
2019-06-01T12:03:46.218Z,46.07
2019-06-01T12:06:15.600Z,46.57
2019-06-01T12:08:44.552Z,46.53
2019-06-01T12:11:13.382Z,46.10
2019-06-01T12:13:42.315Z,46.00
2019-06-01T12:16:11.143Z,46.03
2019-06-01T12:18:40.673Z,46.33
2019-06-01T12:21:09.668Z,46.13
2019-06-01T12:23:38.977Z,45.87
2019-06-01T12:26:07.918Z,46.27
2019-06-01T12:28:37.549Z,47.30
2019-06-01T12:31:06.733Z,47.50
2019-06-01T12:33:35.521Z,47.43
2019-06-01T12:36:04.982Z,46.37
2019-06-01T12:38:50.120Z,45.97
2019-06-01T12:41:19.070Z,46.80
2019-06-01T12:43:53.821Z,46.00
2019-06-01T12:46:22.756Z,46.23
2019-06-01T12:48:52.439Z,46.10
2019-06-01T12:51:21.649Z,46.40
2019-06-01T12:53:50.478Z,47.90
2019-06-01T12:56:19.372Z,46.47
2019-06-01T12:58:48.300Z,46.77
2019-06-01T13:01:17.257Z,46.50
2019-06-01T13:03:46.085Z,47.20
2019-06-01T13:06:14.924Z,52.90
2019-06-01T13:08:44.725Z,46.40
2019-06-01T13:11:13.621Z,46.70
2019-06-01T13:13:43.196Z,46.77
2019-06-01T13:16:12.146Z,45.60
2019-06-01T13:18:41.221Z,46.67
2019-06-01T13:21:10.102Z,46.87
2019-06-01T13:23:38.896Z,47.63
2019-06-01T13:26:07.741Z,46.80
2019-06-01T13:28:38.373Z,46.10
2019-06-01T13:31:07.213Z,46.33
2019-06-01T13:33:35.997Z,47.20
2019-06-01T13:36:05.227Z,46.40
2019-06-01T13:38:34.186Z,46.47
2019-06-01T13:41:03.175Z,46.87
2019-06-01T13:43:32.049Z,46.03
2019-06-01T13:46:00.868Z,47.07
2019-06-01T13:48:29.768Z,46.37
2019-06-01T13:50:58.625Z,46.20
2019-06-01T13:53:27.501Z,46.10
2019-06-01T13:55:56.368Z,46.00
2019-06-01T13:58:25.277Z,46.47
2019-06-01T14:00:54.900Z,46.57
2019-06-01T14:03:23.737Z,46.57
2019-06-01T14:05:53.023Z,46.27
2019-06-01T14:08:28.885Z,46.00
2019-06-01T14:10:53.295Z,46.30
2019-06-01T14:13:22.237Z,46.10
2019-06-01T14:15:51.564Z,46.10
2019-06-01T14:18:20.557Z,45.97
2019-06-01T14:20:49.618Z,46.07
2019-06-01T14:23:18.649Z,46.77
2019-06-01T14:25:48.018Z,45.47
2019-06-01T14:28:16.829Z,46.57
2019-06-01T14:30:46.176Z,46.13
2019-06-01T14:33:15.040Z,46.20
2019-06-01T14:35:43.982Z,46.37
2019-06-01T14:38:12.903Z,45.93
2019-06-01T14:40:41.820Z,45.70
2019-06-01T14:43:10.663Z,46.10
2019-06-01T14:45:39.641Z,46.73
2019-06-01T14:48:08.538Z,46.47
2019-06-01T14:50:37.540Z,46.40
2019-06-01T14:53:06.757Z,45.57
2019-06-01T14:55:35.648Z,46.47
2019-06-01T14:58:04.671Z,46.30
2019-06-01T15:00:33.557Z,46.10
2019-06-01T15:03:03.066Z,46.37
2019-06-01T15:05:33.260Z,46.33
2019-06-01T15:08:02.247Z,45.50
2019-06-01T15:10:31.527Z,45.80
2019-06-01T15:13:03.154Z,45.97
2019-06-01T15:15:30.977Z,45.70
2019-06-01T15:18:03.524Z,45.77
2019-06-01T15:20:30.404Z,46.60
2019-06-01T15:22:59.374Z,46.77
2019-06-01T15:25:28.255Z,46.10
2019-06-01T15:27:57.353Z,45.80
2019-06-01T15:30:26.409Z,45.67
2019-06-01T15:32:56.204Z,46.13
2019-06-01T15:35:25.278Z,46.20
2019-06-01T15:37:58.115Z,46.50
2019-06-01T15:40:24.633Z,46.10
2019-06-01T15:42:55.227Z,45.90
2019-06-01T15:45:24.310Z,45.90
2019-06-01T15:47:53.451Z,46.53
2019-06-01T15:50:22.333Z,45.83
2019-06-01T15:52:52.866Z,45.80
2019-06-01T15:55:21.920Z,46.13
2019-06-01T15:57:50.754Z,47.67
2019-06-01T16:00:19.819Z,46.37
2019-06-01T16:02:48.642Z,46.13
2019-06-01T16:05:17.547Z,47.17
2019-06-01T16:07:46.380Z,46.30
2019-06-01T16:10:15.428Z,45.97
2019-06-01T16:12:44.391Z,45.50
2019-06-01T16:15:13.691Z,48.70
2019-06-01T16:17:42.532Z,46.70
2019-06-01T16:20:12.000Z,46.23
2019-06-01T16:22:41.087Z,47.50
2019-06-01T16:25:10.325Z,45.70
2019-06-01T16:27:39.340Z,46.33
2019-06-01T16:30:09.830Z,46.33
2019-06-01T16:32:39.827Z,46.30
2019-06-01T16:35:09.839Z,47.00
2019-06-01T16:37:40.180Z,47.77
2019-06-01T16:40:10.503Z,46.67
2019-06-01T16:42:39.848Z,46.67
2019-06-01T16:45:10.144Z,45.97
2019-06-01T16:47:40.323Z,46.50
2019-06-01T16:50:09.694Z,45.77
2019-06-01T16:52:38.711Z,46.33
2019-06-01T16:55:08.448Z,46.17
2019-06-01T16:57:37.436Z,46.07
2019-06-01T17:00:08.196Z,46.40
2019-06-01T17:02:36.969Z,46.03
2019-06-01T17:05:07.048Z,46.17
2019-06-01T17:07:36.052Z,46.73
2019-06-01T17:10:24.000Z,46.17
2019-06-01T17:12:35.841Z,46.37
2019-06-01T17:15:05.118Z,46.70
2019-06-01T17:17:34.091Z,46.50
2019-06-01T17:20:03.329Z,46.17
2019-06-01T17:22:32.253Z,47.23
2019-06-01T17:25:01.858Z,46.10
2019-06-01T17:27:30.679Z,47.43
2019-06-01T17:30:00.027Z,46.50
2019-06-01T17:32:30.239Z,46.17
2019-06-01T17:35:00.625Z,46.80
2019-06-01T17:37:29.525Z,46.13
2019-06-01T17:39:58.367Z,45.97
2019-06-01T17:42:27.279Z,46.60
2019-06-01T17:44:56.133Z,46.30
2019-06-01T17:47:27.251Z,46.90
2019-06-01T17:49:55.628Z,47.17
2019-06-01T17:52:24.472Z,47.80
2019-06-01T17:54:53.453Z,46.57
2019-06-01T17:57:22.235Z,46.20
2019-06-01T17:59:51.235Z,46.57
2019-06-01T18:02:20.358Z,46.27
2019-06-01T18:04:49.186Z,47.37
2019-06-01T18:07:17.989Z,47.40
2019-06-01T18:09:46.921Z,46.07
2019-06-01T18:12:15.836Z,46.87
2019-06-01T18:14:44.795Z,47.50
2019-06-01T18:17:13.827Z,46.50
2019-06-01T18:19:42.646Z,46.20
2019-06-01T18:22:12.849Z,46.27
2019-06-01T18:24:42.110Z,46.37
2019-06-01T18:27:11.085Z,47.30
2019-06-01T18:29:48.098Z,47.00
2019-06-01T18:32:11.606Z,48.20
2019-06-01T18:34:41.509Z,47.30
2019-06-01T18:37:11.519Z,46.70
2019-06-01T18:39:41.085Z,46.87
2019-06-01T18:42:10.320Z,49.07
2019-06-01T18:44:39.597Z,46.70
2019-06-01T18:47:09.744Z,46.97
2019-06-01T18:49:38.716Z,48.33
2019-06-01T18:52:08.644Z,50.17
2019-06-01T18:54:37.576Z,49.10
2019-06-01T18:57:10.956Z,48.67
2019-06-01T18:59:37.303Z,49.80
2019-06-01T19:02:06.405Z,50.67
2019-06-01T19:04:35.245Z,53.13
2019-06-01T19:07:05.024Z,50.07
2019-06-01T19:09:34.762Z,51.00
2019-06-01T19:12:03.657Z,49.77
2019-06-01T19:14:32.551Z,49.13
2019-06-01T19:17:01.933Z,51.30
2019-06-01T19:19:30.770Z,51.70
2019-06-01T19:21:59.596Z,50.93
2019-06-01T19:24:28.421Z,56.57
2019-06-01T19:26:57.740Z,57.87
2019-06-01T19:29:26.622Z,55.80
2019-06-01T19:31:55.838Z,60.13
2019-06-01T19:34:25.679Z,56.97
2019-06-01T19:36:54.984Z,53.13
2019-06-01T19:39:24.388Z,51.17
2019-06-01T19:41:53.248Z,49.93
2019-06-01T19:44:22.412Z,49.33
2019-06-01T19:46:51.232Z,57.83
2019-06-01T19:49:20.041Z,49.27
2019-06-01T19:51:48.884Z,49.57
2019-06-01T19:54:18.943Z,49.77
2019-06-01T19:56:47.904Z,48.10
2019-06-01T19:59:17.989Z,50.80
2019-06-01T20:01:47.268Z,51.00
2019-06-01T20:04:16.701Z,49.87
2019-06-01T20:06:45.777Z,50.40
2019-06-01T20:12:10.513Z,49.90
2019-06-01T20:14:34.206Z,50.70
2019-06-01T20:17:03.101Z,50.40
2019-06-01T20:19:32.045Z,52.40
2019-06-01T20:22:01.152Z,48.63
2019-06-01T20:24:29.944Z,49.93
2019-06-01T20:26:59.021Z,53.10
2019-06-01T20:29:27.827Z,53.57
2019-06-01T20:31:56.624Z,49.97
2019-06-01T20:34:25.444Z,49.07
2019-06-01T20:36:54.372Z,49.60
2019-06-01T20:39:23.171Z,48.67
2019-06-01T20:41:51.985Z,48.70
2019-06-01T20:44:21.024Z,47.07
2019-06-01T20:46:49.928Z,47.83
2019-06-01T20:49:18.739Z,47.77
2019-06-01T20:51:47.845Z,48.00
2019-06-01T20:54:16.934Z,48.73
2019-06-01T20:56:45.922Z,50.10
2019-06-01T20:59:17.278Z,50.30
2019-06-01T21:01:45.284Z,54.13
2019-06-01T21:04:14.221Z,53.10
2019-06-01T21:06:43.094Z,54.70
2019-06-01T21:09:11.962Z,48.77
2019-06-01T21:11:40.757Z,49.90
2019-06-01T21:14:09.630Z,49.30
2019-06-01T21:16:38.676Z,50.37
2019-06-01T21:19:07.566Z,50.53
2019-06-01T21:21:36.413Z,49.97
2019-06-01T21:24:05.394Z,55.93
2019-06-01T21:26:34.236Z,49.60
2019-06-01T21:29:03.177Z,50.80
2019-06-01T21:31:32.209Z,48.97
2019-06-01T21:34:01.021Z,48.40
2019-06-01T21:36:29.877Z,50.77
2019-06-01T21:38:58.678Z,48.70
2019-06-01T21:41:27.780Z,49.20
2019-06-01T21:43:56.581Z,53.40
2019-06-01T21:46:25.842Z,50.17
2019-06-01T21:48:54.692Z,48.30
2019-06-01T21:51:23.997Z,47.00
2019-06-01T21:53:52.941Z,47.57
2019-06-01T21:56:22.770Z,48.57
2019-06-01T21:58:52.813Z,53.40
2019-06-01T22:01:22.670Z,52.80
2019-06-01T22:03:51.717Z,50.10
2019-06-01T22:06:21.719Z,49.00
2019-06-01T22:08:52.746Z,49.20
2019-06-01T22:11:21.572Z,48.17
2019-06-01T22:13:50.439Z,47.10
2019-06-01T22:16:19.521Z,50.37
2019-06-01T22:18:48.393Z,49.57
2019-06-01T22:21:17.658Z,49.30
2019-06-01T22:23:46.524Z,49.07
2019-06-01T22:26:15.383Z,48.87
2019-06-01T22:28:44.425Z,47.80
2019-06-01T22:31:13.286Z,50.67
2019-06-01T22:33:42.493Z,49.47
2019-06-01T22:36:11.553Z,48.60
2019-06-01T22:38:40.434Z,49.30
2019-06-01T22:41:09.514Z,49.30
2019-06-01T22:43:46.257Z,50.13
2019-06-01T22:46:09.249Z,47.50
2019-06-01T22:48:38.056Z,50.57
2019-06-01T22:51:07.113Z,48.60
2019-06-01T22:53:35.929Z,50.10
2019-06-01T22:56:04.852Z,50.27
2019-06-01T22:58:33.651Z,49.40
2019-06-01T23:01:02.985Z,49.63
2019-06-01T23:03:32.134Z,50.20
2019-06-01T23:06:01.037Z,48.50
2019-06-01T23:08:31.808Z,47.97
2019-06-01T23:11:00.761Z,51.10
2019-06-01T23:13:30.349Z,48.20
2019-06-01T23:15:59.252Z,48.67
2019-06-01T23:18:28.090Z,51.57
2019-06-01T23:20:56.965Z,49.87
2019-06-01T23:23:26.040Z,48.67
2019-06-01T23:25:54.910Z,49.57
2019-06-01T23:28:24.308Z,48.27
2019-06-01T23:30:53.122Z,48.47
2019-06-01T23:33:22.720Z,48.50
2019-06-01T23:35:51.621Z,51.13
2019-06-01T23:38:20.481Z,48.10
2019-06-01T23:40:49.372Z,49.43
2019-06-01T23:43:18.168Z,48.47
2019-06-01T23:45:46.954Z,49.60
2019-06-01T23:48:15.749Z,47.60
2019-06-01T23:50:44.641Z,49.30
2019-06-01T23:53:14.121Z,48.17
2019-06-01T23:55:43.076Z,50.53
2019-06-01T23:58:11.870Z,48.00
